createdAt,value
2023-09-01T00:00:14.520Z,1.20
2023-09-01T00:02:41.406Z,0.98
2023-09-01T00:05:08.507Z,0.85
2023-09-01T00:07:35.161Z,1.05
2023-09-01T00:10:01.750Z,0.90
2023-09-01T00:12:28.364Z,0.95
2023-09-01T00:14:54.973Z,0.80
2023-09-01T00:17:21.618Z,1.10
2023-09-01T00:19:48.250Z,0.70
2023-09-01T00:22:14.830Z,1.00
2023-09-01T00:24:41.409Z,0.77
2023-09-01T00:27:08.001Z,1.00
2023-09-01T00:29:34.659Z,1.40
2023-09-01T00:32:01.831Z,1.00
2023-09-01T00:34:30.755Z,1.17
2023-09-01T00:36:57.552Z,0.90
2023-09-01T00:39:24.203Z,0.88
2023-09-01T00:41:50.746Z,1.05
2023-09-01T00:44:17.371Z,0.90
2023-09-01T00:46:44.003Z,1.02
2023-09-01T00:49:10.732Z,0.90
2023-09-01T00:51:37.792Z,1.02
2023-09-01T00:54:04.872Z,1.20
2023-09-01T00:56:31.479Z,1.15
2023-09-01T00:58:58.099Z,0.93
2023-09-01T01:01:24.731Z,0.80
2023-09-01T01:03:51.535Z,1.00
2023-09-01T01:06:27.713Z,1.15
2023-09-01T01:09:15.097Z,1.20
2023-09-01T01:11:54.659Z,1.63
2023-09-01T01:14:38.646Z,1.00
2023-09-01T01:17:05.238Z,0.90
2023-09-01T01:19:40.845Z,1.23
2023-09-01T01:22:07.419Z,0.80
2023-09-01T01:24:34.099Z,1.20
2023-09-01T01:27:00.723Z,0.95
2023-09-01T01:29:27.318Z,1.10
2023-09-01T01:31:54.780Z,1.15
2023-09-01T01:34:28.669Z,1.05
2023-09-01T01:37:04.285Z,1.13
2023-09-01T01:39:30.901Z,1.25
2023-09-01T01:42:10.564Z,1.05
2023-09-01T01:44:39.310Z,1.48
2023-09-01T01:47:06.028Z,1.48
2023-09-01T01:49:32.651Z,1.10
2023-09-01T01:52:00.674Z,1.25
2023-09-01T01:54:27.407Z,1.20
2023-09-01T01:56:54.007Z,1.33
2023-09-01T01:59:20.594Z,1.30
2023-09-01T02:01:47.216Z,1.35
2023-09-01T02:04:13.832Z,1.42
2023-09-01T02:06:40.445Z,1.20
2023-09-01T02:09:07.070Z,1.30
2023-09-01T02:11:33.697Z,1.15
2023-09-01T02:14:00.262Z,1.67
2023-09-01T02:16:26.924Z,1.35
2023-09-01T02:18:53.526Z,1.48
2023-09-01T02:21:20.822Z,1.40
2023-09-01T02:23:48.176Z,1.13
2023-09-01T02:26:19.065Z,1.30
2023-09-01T02:28:45.778Z,1.40
2023-09-01T02:31:12.481Z,1.70
2023-09-01T02:33:39.067Z,1.30
2023-09-01T02:36:27.618Z,1.30
2023-09-01T02:38:54.290Z,1.20
2023-09-01T02:41:21.009Z,1.48
2023-09-01T02:43:47.591Z,1.60
2023-09-01T02:46:14.349Z,1.42
2023-09-01T02:48:41.038Z,1.30
2023-09-01T02:51:07.686Z,1.30
2023-09-01T02:53:34.825Z,1.42
2023-09-01T02:56:01.780Z,1.27
2023-09-01T02:58:28.355Z,1.17
2023-09-01T03:00:54.971Z,1.52
2023-09-01T03:03:22.325Z,1.58
2023-09-01T03:05:49.186Z,1.10
2023-09-01T03:08:16.199Z,1.40
2023-09-01T03:10:42.840Z,1.08
2023-09-01T03:13:09.487Z,1.35
2023-09-01T03:15:36.319Z,1.42
2023-09-01T03:18:03.026Z,1.50
2023-09-01T03:20:29.787Z,1.30
2023-09-01T03:22:56.421Z,1.20
2023-09-01T03:25:23.072Z,1.20
2023-09-01T03:27:49.680Z,1.50
2023-09-01T03:30:16.306Z,1.35
2023-09-01T03:32:42.952Z,1.02
2023-09-01T03:35:09.811Z,1.30
2023-09-01T03:37:36.946Z,1.50
2023-09-01T03:40:04.010Z,1.20
2023-09-01T03:42:30.663Z,1.10
2023-09-01T03:44:57.268Z,1.42
2023-09-01T03:47:23.881Z,1.40
2023-09-01T03:49:50.512Z,1.25
2023-09-01T03:52:17.154Z,1.20
2023-09-01T03:54:43.721Z,1.02
2023-09-01T03:57:10.289Z,1.40
2023-09-01T03:59:36.919Z,1.33
2023-09-01T04:02:03.611Z,1.00
2023-09-01T04:04:30.252Z,1.45
2023-09-01T04:06:56.891Z,1.45
2023-09-01T04:09:23.985Z,1.35
2023-09-01T04:11:50.588Z,1.52
2023-09-01T04:14:17.171Z,1.38
2023-09-01T04:16:43.733Z,1.20
2023-09-01T04:19:10.680Z,1.55
2023-09-01T04:21:37.275Z,1.23
2023-09-01T04:24:04.017Z,1.38
2023-09-01T04:26:30.634Z,1.45
2023-09-01T04:28:57.279Z,1.55
2023-09-01T04:31:28.136Z,1.63
2023-09-01T04:33:55.561Z,1.77
2023-09-01T04:36:27.484Z,1.50
2023-09-01T04:39:00.222Z,1.40
2023-09-01T04:41:26.867Z,1.42
2023-09-01T04:43:53.440Z,1.30
2023-09-01T04:46:20.098Z,1.58
2023-09-01T04:48:46.753Z,1.75
2023-09-01T04:51:13.403Z,1.20
2023-09-01T04:53:40.041Z,1.40
2023-09-01T04:56:06.658Z,1.45
2023-09-01T04:58:33.369Z,1.20
2023-09-01T05:01:00.072Z,1.30
2023-09-01T05:03:26.690Z,1.55
2023-09-01T05:05:53.331Z,1.50
2023-09-01T05:08:19.926Z,1.58
2023-09-01T05:10:46.462Z,1.30
2023-09-01T05:13:13.078Z,1.40
2023-09-01T05:15:39.702Z,1.73
2023-09-01T05:18:06.326Z,1.58
2023-09-01T05:20:33.016Z,1.65
2023-09-01T05:22:59.679Z,2.20
2023-09-01T05:25:26.350Z,1.60
2023-09-01T05:27:53.746Z,1.60
2023-09-01T05:30:20.419Z,1.52
2023-09-01T05:32:47.131Z,1.77
2023-09-01T05:35:13.801Z,1.88
2023-09-01T05:37:40.443Z,1.45
2023-09-01T05:40:07.788Z,1.70
2023-09-01T05:42:34.365Z,1.80
2023-09-01T05:45:00.995Z,1.92
2023-09-01T05:47:27.614Z,1.60
2023-09-01T05:49:54.222Z,1.67
2023-09-01T05:52:20.839Z,1.73
2023-09-01T05:54:47.465Z,1.70
2023-09-01T05:57:14.075Z,1.77
2023-09-01T05:59:40.693Z,1.70
2023-09-01T06:02:08.439Z,1.83
2023-09-01T06:04:35.084Z,1.50
2023-09-01T06:07:01.731Z,1.70
2023-09-01T06:09:28.318Z,1.88
2023-09-01T06:11:54.952Z,1.65
2023-09-01T06:14:21.551Z,1.67
2023-09-01T06:16:48.223Z,1.70
2023-09-01T06:19:14.856Z,2.03
2023-09-01T06:21:41.477Z,1.70
2023-09-01T06:24:08.252Z,1.77
2023-09-01T06:26:34.878Z,1.60
2023-09-01T06:29:01.460Z,1.60
2023-09-01T06:31:28.093Z,1.70
2023-09-01T06:33:54.671Z,1.55
2023-09-01T06:36:21.308Z,1.77
2023-09-01T06:38:47.873Z,1.88
2023-09-01T06:41:14.458Z,1.90
2023-09-01T06:43:41.062Z,2.33
2023-09-01T06:46:07.713Z,1.35
2023-09-01T06:48:34.344Z,1.42
2023-09-01T06:51:01.022Z,1.45
2023-09-01T06:53:27.922Z,1.13
2023-09-01T06:55:54.494Z,1.52
2023-09-01T06:58:21.208Z,1.35
2023-09-01T07:00:47.893Z,1.27
2023-09-01T07:03:14.514Z,1.27
2023-09-01T07:05:41.153Z,1.30
2023-09-01T07:08:12.185Z,1.70
2023-09-01T07:10:39.034Z,1.33
2023-09-01T07:13:08.046Z,1.13
2023-09-01T07:15:34.630Z,1.40
2023-09-01T07:18:01.335Z,1.30
2023-09-01T07:20:28.056Z,1.23
2023-09-01T07:22:54.738Z,1.25
2023-09-01T07:25:21.365Z,1.45
2023-09-01T07:27:47.959Z,1.85
2023-09-01T07:30:14.814Z,1.45
2023-09-01T07:32:41.748Z,1.35
2023-09-01T07:35:08.366Z,1.48
2023-09-01T07:37:34.948Z,1.80
2023-09-01T07:40:01.617Z,1.60
2023-09-01T07:42:28.277Z,1.63
2023-09-01T07:44:54.855Z,1.50
2023-09-01T07:47:21.452Z,0.95
2023-09-01T07:49:48.090Z,1.10
2023-09-01T07:52:14.676Z,1.13
2023-09-01T07:54:41.365Z,0.95
2023-09-01T07:57:07.964Z,0.70
2023-09-01T07:59:34.580Z,1.05
2023-09-01T08:02:01.241Z,0.57
2023-09-01T08:04:27.857Z,0.90
2023-09-01T08:06:54.456Z,0.77
2023-09-01T08:09:21.066Z,1.10
2023-09-01T08:11:47.658Z,1.05
2023-09-01T08:14:14.296Z,0.82
2023-09-01T08:16:40.970Z,1.00
2023-09-01T08:19:07.586Z,1.17
2023-09-01T08:21:34.167Z,0.90
2023-09-01T08:24:00.930Z,1.20
2023-09-01T08:26:27.586Z,0.80
2023-09-01T08:28:54.213Z,1.17
2023-09-01T08:31:20.807Z,0.80
2023-09-01T08:33:47.497Z,0.93
2023-09-01T08:36:14.093Z,0.93
2023-09-01T08:38:43.650Z,1.20
2023-09-01T08:41:10.668Z,0.95
2023-09-01T08:43:38.443Z,0.63
2023-09-01T08:46:14.503Z,0.90
2023-09-01T08:48:42.066Z,0.90
2023-09-01T08:51:08.725Z,0.98
2023-09-01T08:53:35.897Z,1.00
2023-09-01T08:56:02.531Z,0.88
2023-09-01T08:58:29.157Z,0.63
2023-09-01T09:00:55.981Z,0.82
2023-09-01T09:03:22.676Z,0.65
2023-09-01T09:05:49.336Z,0.90
2023-09-01T09:08:16.161Z,1.55
2023-09-01T09:10:44.554Z,0.80
2023-09-01T09:13:26.951Z,0.40
2023-09-01T09:16:11.684Z,0.60
2023-09-01T09:18:40.416Z,0.60
2023-09-01T09:21:23.747Z,0.60
2023-09-01T09:23:50.379Z,0.80
2023-09-01T09:26:16.928Z,0.82
2023-09-01T09:28:43.566Z,0.90
2023-09-01T09:31:10.175Z,0.77
2023-09-01T09:33:36.748Z,0.50
2023-09-01T09:36:03.500Z,0.90
2023-09-01T09:38:45.487Z,1.00
2023-09-01T09:41:12.459Z,0.65
2023-09-01T09:43:49.533Z,0.55
2023-09-01T09:46:16.429Z,0.70
2023-09-01T09:48:43.307Z,1.05
2023-09-01T09:51:10.090Z,0.50
2023-09-01T09:53:39.087Z,0.70
2023-09-01T09:56:22.977Z,0.80
2023-09-01T09:58:49.576Z,0.70
2023-09-01T10:01:20.131Z,0.80
2023-09-01T10:03:47.755Z,0.80
2023-09-01T10:06:15.794Z,0.73
2023-09-01T10:08:42.401Z,0.57
2023-09-01T10:11:10.497Z,0.95
2023-09-01T10:13:37.443Z,0.63
2023-09-01T10:16:04.254Z,0.70
2023-09-01T10:18:30.929Z,0.90
2023-09-01T10:20:57.511Z,0.60
2023-09-01T10:23:24.117Z,0.60
2023-09-01T10:26:12.976Z,0.80
2023-09-01T10:29:02.388Z,0.63
2023-09-01T10:31:29.198Z,0.82
2023-09-01T10:34:11.962Z,0.40
2023-09-01T10:36:38.588Z,0.65
2023-09-01T10:39:17.325Z,0.63
2023-09-01T10:41:51.304Z,0.57
2023-09-01T10:44:17.958Z,0.47
2023-09-01T10:46:44.600Z,0.63
2023-09-01T10:49:11.256Z,0.50
2023-09-01T10:51:37.873Z,0.80
2023-09-01T10:54:16.695Z,0.60
2023-09-01T10:56:56.252Z,0.60
2023-09-01T10:59:35.646Z,0.80
2023-09-01T11:02:21.478Z,0.60
2023-09-01T11:04:48.200Z,0.60
2023-09-01T11:07:14.843Z,0.65
2023-09-01T11:09:41.338Z,0.70
2023-09-01T11:12:08.575Z,0.93
2023-09-01T11:14:39.246Z,0.82
2023-09-01T11:17:06.150Z,0.70
2023-09-01T11:19:51.228Z,0.47
2023-09-01T11:22:17.824Z,0.60
2023-09-01T11:24:47.439Z,0.70
2023-09-01T11:27:14.178Z,0.60
2023-09-01T11:29:40.815Z,0.43
2023-09-01T11:32:08.585Z,0.70
2023-09-01T11:34:38.931Z,0.90
2023-09-01T11:37:05.574Z,0.50
2023-09-01T11:39:32.234Z,0.70
2023-09-01T11:42:00.294Z,1.52
2023-09-01T11:44:26.884Z,0.40
2023-09-01T11:46:53.616Z,0.63
2023-09-01T11:49:20.211Z,0.52
2023-09-01T11:51:46.817Z,0.55
2023-09-01T11:54:13.474Z,0.50
2023-09-01T11:56:40.049Z,0.60
2023-09-01T11:59:06.992Z,0.57
2023-09-01T12:01:37.869Z,0.45
2023-09-01T12:04:09.008Z,0.55
2023-09-01T12:06:39.639Z,0.30
2023-09-01T12:09:15.921Z,0.50
2023-09-01T12:11:55.510Z,0.40
2023-09-01T12:14:23.956Z,0.45
2023-09-01T12:16:52.367Z,0.20
2023-09-01T12:19:23.974Z,0.50
2023-09-01T12:21:51.327Z,0.70
2023-09-01T12:24:17.935Z,0.70
2023-09-01T12:26:44.692Z,0.60
2023-09-01T12:29:11.369Z,0.63
2023-09-01T12:31:38.129Z,0.43
2023-09-01T12:34:04.885Z,0.30
2023-09-01T12:36:31.729Z,0.57
2023-09-01T12:38:58.326Z,0.70
2023-09-01T12:41:24.998Z,0.65
2023-09-01T12:43:51.711Z,0.80
2023-09-01T12:46:18.470Z,0.70
2023-09-01T12:48:45.167Z,0.60
2023-09-01T12:51:12.766Z,0.47
2023-09-01T12:53:40.412Z,0.57
2023-09-01T12:56:07.087Z,0.40
2023-09-01T12:58:33.740Z,0.50
2023-09-01T13:01:03.521Z,0.68
2023-09-01T13:03:30.334Z,0.60
2023-09-01T13:05:57.045Z,0.63
2023-09-01T13:08:23.706Z,0.50
2023-09-01T13:10:50.335Z,0.60
2023-09-01T13:13:17.399Z,0.63
2023-09-01T13:15:50.299Z,0.98
2023-09-01T13:18:17.377Z,0.77
2023-09-01T13:20:44.086Z,0.60
2023-09-01T13:23:10.751Z,0.80
2023-09-01T13:25:37.443Z,0.70
2023-09-01T13:28:04.492Z,0.70
2023-09-01T13:30:31.264Z,0.63
2023-09-01T13:32:57.994Z,0.40
2023-09-01T13:35:24.764Z,0.30
2023-09-01T13:37:51.485Z,0.40
2023-09-01T13:40:18.112Z,0.30
2023-09-01T13:42:44.854Z,0.30
2023-09-01T13:45:11.651Z,0.32
2023-09-01T13:47:38.364Z,0.30
2023-09-01T13:50:05.700Z,0.35
2023-09-01T13:52:32.505Z,0.30
2023-09-01T13:54:59.214Z,0.32
2023-09-01T13:57:25.948Z,0.40
2023-09-01T13:59:52.786Z,0.40
2023-09-01T14:02:20.988Z,0.50
2023-09-01T14:04:51.023Z,0.52
2023-09-01T14:07:18.139Z,0.55
2023-09-01T14:09:45.008Z,0.63
2023-09-01T14:12:11.676Z,0.45
2023-09-01T14:14:38.380Z,0.50
2023-09-01T14:17:05.155Z,0.30
2023-09-01T14:19:31.962Z,0.30
2023-09-01T14:21:58.597Z,0.40
2023-09-01T14:24:25.307Z,0.30
2023-09-01T14:26:51.994Z,0.40
2023-09-01T14:29:19.106Z,0.30
2023-09-01T14:31:45.791Z,0.50
2023-09-01T14:34:12.521Z,0.40
2023-09-01T14:36:39.140Z,0.50
2023-09-01T14:39:05.833Z,0.50
2023-09-01T14:41:32.551Z,0.55
2023-09-01T14:43:59.198Z,0.40
2023-09-01T14:46:25.963Z,0.50
2023-09-01T14:48:52.581Z,0.32
2023-09-01T14:51:19.164Z,0.45
2023-09-01T14:53:48.894Z,0.30
2023-09-01T14:56:16.109Z,0.30
2023-09-01T14:58:42.822Z,0.63
2023-09-01T15:01:09.442Z,0.40
2023-09-01T15:03:36.325Z,0.50
2023-09-01T15:06:03.180Z,0.30
2023-09-01T15:08:29.855Z,0.50
2023-09-01T15:11:01.494Z,0.70
2023-09-01T15:13:28.124Z,0.40
2023-09-01T15:15:54.788Z,0.30
2023-09-01T15:18:21.487Z,0.40
2023-09-01T15:20:48.092Z,0.30
2023-09-01T15:23:15.072Z,0.43
2023-09-01T15:25:41.848Z,0.30
2023-09-01T15:28:08.466Z,0.35
2023-09-01T15:30:35.083Z,0.70
2023-09-01T15:33:01.864Z,0.38
2023-09-01T15:35:32.414Z,0.40
2023-09-01T15:38:01.528Z,0.40
2023-09-01T15:40:28.243Z,0.40
2023-09-01T15:42:56.741Z,0.50
2023-09-01T15:45:23.818Z,0.30
2023-09-01T15:47:50.985Z,0.40
2023-09-01T15:50:20.519Z,0.43
2023-09-01T15:52:51.674Z,0.38
2023-09-01T15:55:18.323Z,0.50
2023-09-01T15:57:44.918Z,0.50
2023-09-01T16:00:11.918Z,0.45
2023-09-01T16:02:38.593Z,0.40
2023-09-01T16:05:05.269Z,0.40
2023-09-01T16:07:31.869Z,0.40
2023-09-01T16:09:58.548Z,0.50
2023-09-01T16:12:25.137Z,0.40
2023-09-01T16:14:51.749Z,0.40
2023-09-01T16:17:18.343Z,0.60
2023-09-01T16:19:44.931Z,0.63
2023-09-01T16:22:11.596Z,0.38
2023-09-01T16:24:38.240Z,0.47
2023-09-01T16:27:05.024Z,0.47
2023-09-01T16:29:31.559Z,0.50
2023-09-01T16:31:58.089Z,0.50
2023-09-01T16:34:24.645Z,0.35
2023-09-01T16:36:51.181Z,0.45
2023-09-01T16:39:17.752Z,0.40
2023-09-01T16:41:44.273Z,0.60
2023-09-01T16:44:10.925Z,0.45
2023-09-01T16:46:37.481Z,0.70
2023-09-01T16:49:04.266Z,0.45
2023-09-01T16:51:30.777Z,0.30
2023-09-01T16:53:57.374Z,0.50
2023-09-01T16:56:23.960Z,0.45
2023-09-01T16:58:50.607Z,0.50
2023-09-01T17:01:17.265Z,0.50
2023-09-01T17:03:43.947Z,0.80
2023-09-01T17:06:10.556Z,0.80
2023-09-01T17:08:44.377Z,0.50
2023-09-01T17:11:11.161Z,0.55
2023-09-01T17:13:37.775Z,0.35
2023-09-01T17:16:04.732Z,0.50
2023-09-01T17:18:31.382Z,0.70
2023-09-01T17:20:58.432Z,0.50
2023-09-01T17:23:28.630Z,0.50
2023-09-01T17:25:55.539Z,0.50
2023-09-01T17:28:22.203Z,0.52
2023-09-01T17:30:48.893Z,0.43
2023-09-01T17:33:15.772Z,0.50
2023-09-01T17:35:42.669Z,0.40
2023-09-01T17:38:09.280Z,0.65
2023-09-01T17:40:36.398Z,0.50
2023-09-01T17:43:04.184Z,0.90
2023-09-01T17:45:30.750Z,0.80
2023-09-01T17:47:57.388Z,0.90
2023-09-01T17:50:24.009Z,0.90
2023-09-01T17:52:51.565Z,0.60
2023-09-01T17:55:19.632Z,0.90
2023-09-01T17:57:46.239Z,0.70
2023-09-01T18:00:13.247Z,1.00
2023-09-01T18:02:39.912Z,1.00
2023-09-01T18:05:08.076Z,1.10
2023-09-01T18:07:34.871Z,1.10
2023-09-01T18:10:01.919Z,1.17
2023-09-01T18:12:28.536Z,0.95
2023-09-01T18:14:55.198Z,1.00
2023-09-01T18:17:22.005Z,1.23
2023-09-01T18:19:48.644Z,0.90
2023-09-01T18:22:15.284Z,0.90
2023-09-01T18:24:41.899Z,0.90
2023-09-01T18:27:27.833Z,0.85
2023-09-01T18:29:54.792Z,0.73
2023-09-01T18:32:21.344Z,0.90
2023-09-01T18:34:48.005Z,0.90
2023-09-01T18:37:15.791Z,0.90
2023-09-01T18:39:42.381Z,1.30
2023-09-01T18:42:37.329Z,1.15
2023-09-01T18:45:05.718Z,1.38
2023-09-01T18:47:35.789Z,1.13
2023-09-01T18:50:02.456Z,1.10
2023-09-01T18:52:29.083Z,1.08
2023-09-01T18:54:55.769Z,1.08
2023-09-01T18:57:22.346Z,0.73
2023-09-01T18:59:49.056Z,1.20
2023-09-01T19:02:41.569Z,1.20
2023-09-01T19:05:17.616Z,1.30
2023-09-01T19:07:44.245Z,1.27
2023-09-01T19:10:20.945Z,1.05
2023-09-01T19:12:49.558Z,1.30
2023-09-01T19:15:16.434Z,1.05
2023-09-01T19:17:43.179Z,1.35
2023-09-01T19:20:33.110Z,1.30
2023-09-01T19:23:29.855Z,1.20
2023-09-01T19:25:57.361Z,1.15
2023-09-01T19:28:37.096Z,1.30
2023-09-01T19:31:06.717Z,1.40
2023-09-01T19:33:33.380Z,1.30
2023-09-01T19:36:00.186Z,1.23
2023-09-01T19:38:28.081Z,1.58
2023-09-01T19:40:55.801Z,1.20
2023-09-01T19:43:22.673Z,1.23
2023-09-01T19:45:50.090Z,1.65
2023-09-01T19:48:16.635Z,1.27
2023-09-01T19:50:43.302Z,1.23
2023-09-01T19:53:25.852Z,1.23
2023-09-01T19:55:52.897Z,1.30
2023-09-01T19:58:37.659Z,1.20
2023-09-01T20:01:04.746Z,1.25
2023-09-01T20:03:31.362Z,1.10
2023-09-01T20:05:57.985Z,1.20
2023-09-01T20:08:24.853Z,1.10
2023-09-01T20:10:51.462Z,1.20
2023-09-01T20:13:18.378Z,1.88
2023-09-01T20:15:47.566Z,2.60
2023-09-01T20:18:18.158Z,2.42
2023-09-01T20:20:48.162Z,2.67
2023-09-01T20:23:15.298Z,3.47
2023-09-01T20:25:43.104Z,2.60
2023-09-01T20:28:09.733Z,2.53
2023-09-01T20:30:36.342Z,2.50
2023-09-01T20:33:03.155Z,2.90
2023-09-01T20:35:29.869Z,2.33
2023-09-01T20:37:56.605Z,2.03
2023-09-01T20:40:23.223Z,1.52
2023-09-01T20:42:49.827Z,2.10
2023-09-01T20:45:16.428Z,1.83
2023-09-01T20:47:43.043Z,2.22
2023-09-01T20:50:09.936Z,1.98
2023-09-01T20:52:37.959Z,2.50
2023-09-01T20:55:05.822Z,2.58
2023-09-01T20:57:40.071Z,2.42
2023-09-01T21:00:08.546Z,2.25
2023-09-01T21:02:35.639Z,2.03
2023-09-01T21:05:02.698Z,2.30
2023-09-01T21:07:29.312Z,2.30
2023-09-01T21:09:55.956Z,2.13
2023-09-01T21:12:22.590Z,1.77
2023-09-01T21:14:49.576Z,2.60
2023-09-01T21:17:16.218Z,2.33
2023-09-01T21:19:42.832Z,2.67
2023-09-01T21:22:09.415Z,2.78
2023-09-01T21:24:36.021Z,2.72
2023-09-01T21:27:02.613Z,2.83
2023-09-01T21:29:29.197Z,2.40
2023-09-01T21:31:55.815Z,2.60
2023-09-01T21:34:22.408Z,2.80
2023-09-01T21:36:48.997Z,2.38
2023-09-01T21:39:15.658Z,2.45
2023-09-01T21:41:42.198Z,2.00
2023-09-01T21:44:08.845Z,2.28
2023-09-01T21:46:35.472Z,2.42
2023-09-01T21:49:02.042Z,2.00
2023-09-01T21:51:28.671Z,1.80
2023-09-01T21:53:55.311Z,2.00
2023-09-01T21:56:21.975Z,2.50
2023-09-01T21:58:49.131Z,1.83
2023-09-01T22:01:16.112Z,2.00
2023-09-01T22:03:44.491Z,1.80
2023-09-01T22:06:11.077Z,2.10
2023-09-01T22:08:37.717Z,4.05
2023-09-01T22:11:04.378Z,4.07
2023-09-01T22:13:31.075Z,4.47
2023-09-01T22:15:57.712Z,3.00
2023-09-01T22:18:24.552Z,2.50
2023-09-01T22:20:51.196Z,2.60
2023-09-01T22:23:18.101Z,2.80
2023-09-01T22:25:44.912Z,2.40
2023-09-01T22:28:11.507Z,2.65
2023-09-01T22:30:38.109Z,2.08
2023-09-01T22:33:05.282Z,2.83
2023-09-01T22:35:31.953Z,2.55
2023-09-01T22:38:10.839Z,2.78
2023-09-01T22:40:38.917Z,16.02
2023-09-01T22:43:05.505Z,12.48
2023-09-01T22:45:32.035Z,9.50
2023-09-01T22:47:58.656Z,11.02
2023-09-01T22:50:25.359Z,12.13
2023-09-01T22:52:51.969Z,12.98
2023-09-01T22:55:18.581Z,16.50
2023-09-01T22:57:45.229Z,16.02
2023-09-01T23:00:12.278Z,11.68
2023-09-01T23:02:38.915Z,11.35
2023-09-01T23:05:06.103Z,10.57
2023-09-01T23:07:32.671Z,7.82
2023-09-01T23:09:59.298Z,7.40
2023-09-01T23:12:25.877Z,7.53
2023-09-01T23:14:52.481Z,6.40
2023-09-01T23:17:19.113Z,5.13
2023-09-01T23:19:45.800Z,5.07
2023-09-01T23:22:12.433Z,4.80
2023-09-01T23:24:39.074Z,4.78
2023-09-01T23:27:05.870Z,4.35
2023-09-01T23:29:32.465Z,4.57
2023-09-01T23:32:05.769Z,4.30
2023-09-01T23:34:33.602Z,4.55
2023-09-01T23:37:00.217Z,4.40
2023-09-01T23:39:26.923Z,5.20
2023-09-01T23:41:53.509Z,5.22
2023-09-01T23:44:20.095Z,5.53
2023-09-01T23:46:46.707Z,5.60
2023-09-01T23:49:13.303Z,5.32
2023-09-01T23:51:39.931Z,5.72
2023-09-01T23:54:06.678Z,6.20
2023-09-01T23:56:33.316Z,5.22
2023-09-01T23:58:59.922Z,6.38
